Date,TemperatureHighF,TemperatureAvgF,TemperatureLowF,DewpointHighF,DewpointAvgF,DewpointLowF,HumidityHigh,HumidityAvg,HumidityLow,PressureMaxIn,PressureMinIn,WindSpeedMaxMPH,WindSpeedAvgMPH,GustSpeedMaxMPH,PrecipitationSumIn
2013-10-1,76,74,72,71,70,69,91,87,83,30.04,29.98,0,0,3,0.02
2013-10-2,86,76,67,73,70,65,93,81,63,30.04,29.97,3,1,9,0.01
2013-10-3,89,77,67,76,70,65,94,82,58,30.05,29.96,3,1,11,0.00
2013-10-4,90,78,69,76,71,67,94,81,57,30.05,29.96,3,1,9,0.00
2013-10-5,88,77,68,76,71,66,94,82,60,30.03,29.94,4,1,10,0.00
2013-10-6,92,78,70,77,72,68,94,84,55,29.96,29.83,2,0,9,1.62
2013-10-7,84,76,71,78,72,69,94,90,74,29.87,29.71,2,0,9,2.84
2013-10-8,90,78,72,78,74,70,94,87,63,29.91,29.74,2,1,12,1.70
2013-10-9,83,74,68,72,70,65,93,87,69,30.01,29.89,3,1,11,0.01
2013-10-10,88,74,66,72,67,64,94,80,51,30.03,29.93,3,1,10,0.01
2013-10-11,89,73,61,71,65,59,95,78,47,30.02,29.91,2,0,6,0.01
2013-10-12,88,75,64,72,65,62,94,75,43,30.01,29.93,2,0,9,0.01
2013-10-13,88,73,63,71,63,-100,94,74,45,30.05,29.96,2,0,7,0.00
2013-10-14,88,75,68,71,68,65,93,81,55,30.01,29.91,3,1,10,0.00
2013-10-15,85,74,68,73,70,66,93,87,67,29.97,29.86,1,0,4,0.00
2013-10-16,89,76,68,76,70,66,94,84,52,29.95,29.86,2,0,7,0.01
2013-10-17,90,77,69,75,70,67,94,82,55,29.96,29.86,1,0,5,0.01
2013-10-18,93,78,68,75,71,66,94,80,49,29.96,29.86,2,0,7,0.01
2013-10-19,90,79,69,76,72,67,94,80,55,29.93,29.83,2,0,7,0.00
2013-10-20,88,77,73,76,71,-100,92,84,67,29.95,29.83,2,0,8,0.00
2013-10-21,93,79,71,79,74,69,93,85,57,29.97,29.87,2,0,8,0.27
2013-10-22,92,80,72,77,73,70,93,81,59,29.93,29.77,3,1,10,0.27
2013-10-23,85,75,65,72,65,55,92,72,40,29.98,29.77,3,1,9,0.01
2013-10-24,73,65,61,61,56,50,92,74,62,30.13,29.98,1,0,7,0.00
2013-10-25,82,72,60,62,58,55,94,64,41,30.21,30.12,2,1,7,0.01
2013-10-26,81,66,55,61,56,53,94,75,42,30.19,30.07,2,0,7,0.01
2013-10-27,79,64,55,63,54,-100,95,76,44,30.12,30.03,2,0,8,0.01
2013-10-28,85,66,54,67,58,-100,95,80,49,30.17,30.08,3,0,8,0.01
2013-10-29,83,71,60,71,64,58,95,82,54,30.20,30.12,5,1,13,0.01
2013-10-30,84,72,64,72,66,62,94,82,59,30.20,30.09,4,1,10,0.01
2013-10-31,86,73,63,71,66,61,95,82,54,30.11,29.96,3,0,8,0.00